createdAt,value
2018-12-30T00:00:03.497Z,1029.02
2018-12-30T00:05:04.066Z,1028.85
2018-12-30T00:10:03.395Z,1028.89
2018-12-30T00:15:03.621Z,1028.95
2018-12-30T00:20:03.769Z,1029.09
2018-12-30T00:25:02.867Z,1029.24
2018-12-30T00:30:03.015Z,1029.18
2018-12-30T00:35:03.276Z,1029.29
2018-12-30T00:40:03.509Z,1029.44
2018-12-30T00:45:03.612Z,1029.5
2018-12-30T00:50:03.795Z,1029.56
2018-12-30T00:55:02.954Z,1029.82
2018-12-30T01:00:03.068Z,1029.86
2018-12-30T01:05:03.023Z,1029.83
2018-12-30T01:10:03.325Z,1029.77
2018-12-30T01:15:03.563Z,1029.86
2018-12-30T01:20:04.581Z,1030
2018-12-30T01:25:03.692Z,1030
2018-12-30T01:30:02.924Z,1030.01
2018-12-30T01:35:03.059Z,1030.18
2018-12-30T01:40:03.237Z,1030.18
2018-12-30T01:45:03.355Z,1030.29
2018-12-30T01:50:03.413Z,1030.45
2018-12-30T01:55:03.581Z,1030.43
2018-12-30T02:00:03.734Z,1030.69
2018-12-30T02:05:02.791Z,1030.84
2018-12-30T02:10:02.925Z,1030.71
2018-12-30T02:15:02.961Z,1030.84
2018-12-30T02:20:04.155Z,1030.77
2018-12-30T02:25:03.127Z,1030.89
2018-12-30T02:30:03.210Z,1030.68
2018-12-30T02:35:03.429Z,1030.93
2018-12-30T02:40:03.588Z,1030.99
2018-12-30T02:45:03.680Z,1031.1
2018-12-30T02:50:02.724Z,1031.11
2018-12-30T02:55:02.977Z,1031.08
2018-12-30T03:00:03.088Z,1031.05
2018-12-30T03:05:03.225Z,1031.07
2018-12-30T03:10:03.324Z,1031.25
2018-12-30T03:15:03.364Z,1031.19
2018-12-30T03:20:03.485Z,1031.23
2018-12-30T03:25:03.537Z,1031.3
2018-12-30T03:30:03.552Z,1031.31
2018-12-30T03:35:03.589Z,1031.41
2018-12-30T03:40:03.765Z,1031.38
2018-12-30T03:45:02.994Z,1031.42
2018-12-30T03:50:02.976Z,1031.4
2018-12-30T03:55:03.235Z,1031.4
2018-12-30T04:00:03.457Z,1031.34
2018-12-30T04:05:03.499Z,1031.45
2018-12-30T04:15:03.330Z,1031.57
2018-12-30T04:20:03.384Z,1031.57
2018-12-30T04:25:03.408Z,1031.61
2018-12-30T04:30:03.531Z,1031.62
2018-12-30T04:35:03.594Z,1031.61
2018-12-30T04:40:03.717Z,1031.66
2018-12-30T04:45:02.744Z,1031.92
2018-12-30T04:50:02.773Z,1031.97
2018-12-30T04:55:02.887Z,1031.83
2018-12-30T05:00:02.935Z,1031.66
2018-12-30T05:05:02.980Z,1031.84
2018-12-30T05:10:03.083Z,1031.79
2018-12-30T05:15:03.141Z,1031.99
2018-12-30T05:20:03.212Z,1032.18
2018-12-30T05:25:03.203Z,1032.15
2018-12-30T05:30:03.020Z,1032.11
2018-12-30T05:35:03.087Z,1032.07
2018-12-30T05:40:03.191Z,1032.04
2018-12-30T05:45:03.261Z,1032.25
2018-12-30T05:50:02.882Z,1032.39
2018-12-30T05:55:02.880Z,1032.35
2018-12-30T06:00:02.971Z,1032.52
2018-12-30T06:05:02.975Z,1032.54
2018-12-30T06:10:03.073Z,1032.73
2018-12-30T06:15:03.190Z,1032.75
2018-12-30T06:20:03.275Z,1032.64
2018-12-30T06:25:03.764Z,1032.69
2018-12-30T06:30:02.813Z,1032.73
2018-12-30T06:35:02.868Z,1033.06
2018-12-30T06:40:02.974Z,1033.1
2018-12-30T06:45:02.910Z,1033.13
2018-12-30T06:50:02.960Z,1033.22
2018-12-30T06:55:03.037Z,1033.27
2018-12-30T07:00:03.110Z,1033.24
2018-12-30T07:05:03.355Z,1033.15
2018-12-30T07:10:03.390Z,1033.11
2018-12-30T07:15:03.460Z,1033.16
2018-12-30T07:20:03.512Z,1033.13
2018-12-30T07:25:03.489Z,1033.05
2018-12-30T07:30:03.518Z,1033.12
2018-12-30T07:35:03.783Z,1033.06
2018-12-30T07:40:02.850Z,1033.03
2018-12-30T07:45:02.799Z,1033.06
2018-12-30T07:50:02.834Z,1033.07
2018-12-30T07:55:02.876Z,1033.19
2018-12-30T08:00:02.891Z,1033.41
2018-12-30T08:05:02.928Z,1033.21
2018-12-30T08:10:03.109Z,1033.26
2018-12-30T08:15:03.097Z,1033.27
2018-12-30T08:20:03.054Z,1033.28
2018-12-30T08:25:03.111Z,1033.39
2018-12-30T08:30:03.133Z,1033.46
2018-12-30T08:35:03.168Z,1033.45
2018-12-30T08:40:03.272Z,1033.44
2018-12-30T08:49:39.991Z,1033.24
2018-12-30T08:50:02.474Z,1033.24
2018-12-30T08:55:02.817Z,1033.28
2018-12-30T08:58:07.418Z,1033.2
2018-12-30T08:58:46.162Z,1033.27
2018-12-30T09:00:03.199Z,1033.27
2018-12-30T09:01:49.910Z,1033.25
2018-12-30T09:05:02.696Z,1033.28
2018-12-30T09:06:01.188Z,1033.28
2018-12-30T09:10:03.118Z,1033.21
2018-12-30T09:14:11.480Z,1033.36
2018-12-30T09:15:39.448Z,1033.36
2018-12-30T09:20:02.714Z,1033.2
2018-12-30T09:25:03.131Z,1033.44
2018-12-30T09:36:27.472Z,1033.7
2018-12-30T09:40:03.108Z,1033.83
2018-12-30T09:45:02.434Z,1033.91
2018-12-30T09:50:02.784Z,1033.89
2018-12-30T09:55:03.125Z,1034.05
2018-12-30T10:00:02.549Z,1034.04
2018-12-30T10:05:02.987Z,1034.13
2018-12-30T10:10:02.415Z,1034.07
2018-12-30T10:15:09.682Z,1034.14
2018-12-30T10:20:02.584Z,1034.17
2018-12-30T10:25:02.952Z,1033.99
2018-12-30T10:30:03.391Z,1033.81
2018-12-30T10:35:02.814Z,1033.82
2018-12-30T10:36:35.981Z,1033.7
2018-12-30T10:40:03.328Z,1033.68
2018-12-30T10:45:02.758Z,1033.7
2018-12-30T10:46:31.979Z,1033.7
2018-12-30T10:50:03.184Z,1033.58
2018-12-30T10:55:02.611Z,1033.71
2018-12-30T11:00:02.950Z,1033.62
2018-12-30T11:10:03.018Z,1033.6
2018-12-30T11:15:02.465Z,1033.5
2018-12-30T11:20:02.807Z,1033.51
2018-12-30T11:25:03.293Z,1033.52
2018-12-30T11:30:02.631Z,1033.6
2018-12-30T11:35:02.985Z,1033.65
2018-12-30T11:40:02.389Z,1033.7
2018-12-30T11:45:02.741Z,1033.62
2018-12-30T11:50:03.228Z,1033.5
2018-12-30T11:55:02.588Z,1033.44
2018-12-30T12:00:02.971Z,1033.41
2018-12-30T12:05:02.399Z,1033.41
2018-12-30T12:10:02.800Z,1033.28
2018-12-30T12:15:03.140Z,1033.21
2018-12-30T12:20:02.568Z,1033.26
2018-12-30T12:25:02.900Z,1033.16
2018-12-30T12:30:03.242Z,1033.14
2018-12-30T12:35:02.670Z,1032.96
2018-12-30T12:40:03.106Z,1032.92
2018-12-30T12:45:02.517Z,1032.83
2018-12-30T12:50:02.870Z,1032.74
2018-12-30T12:55:03.349Z,1032.88
2018-12-30T13:00:02.719Z,1032.88
2018-12-30T13:05:03.181Z,1032.86
2018-12-30T13:10:02.630Z,1032.96
2018-12-30T13:15:03.031Z,1032.93
2018-12-30T13:20:02.449Z,1032.97
2018-12-30T13:25:02.800Z,1032.97
2018-12-30T13:30:03.298Z,1032.93
2018-12-30T13:35:02.679Z,1032.93
2018-12-30T13:40:03.112Z,1032.93
2018-12-30T13:45:02.511Z,1032.95
2018-12-30T13:50:02.859Z,1032.92
2018-12-30T13:55:03.204Z,1032.9
2018-12-30T14:00:02.613Z,1032.91
2018-12-30T14:05:02.974Z,1032.99
2018-12-30T14:10:02.381Z,1032.96
2018-12-30T14:15:02.828Z,1032.7
2018-12-30T14:20:03.262Z,1032.68
2018-12-30T14:25:02.703Z,1032.7
2018-12-30T14:30:03.172Z,1032.7
2018-12-30T14:35:02.524Z,1032.8
2018-12-30T14:40:02.988Z,1032.74
2018-12-30T14:45:02.508Z,1032.74
2018-12-30T14:50:02.851Z,1032.77
2018-12-30T14:55:04.126Z,1032.9
2018-12-30T15:00:03.525Z,1032.94
2018-12-30T15:05:03.001Z,1032.93
2018-12-30T15:10:02.513Z,1032.81
2018-12-30T15:15:02.944Z,1032.61
2018-12-30T15:20:03.442Z,1032.7
2018-12-30T15:25:02.788Z,1032.58
2018-12-30T15:30:03.121Z,1032.68
2018-12-30T15:35:02.449Z,1032.56
2018-12-30T15:40:02.896Z,1032.59
2018-12-30T15:45:03.326Z,1032.38
2018-12-30T15:50:02.739Z,1032.35
2018-12-30T15:55:03.088Z,1032.42
2018-12-30T16:00:02.492Z,1032.45
2018-12-30T16:05:02.838Z,1032.49
2018-12-30T16:10:03.326Z,1032.54
2018-12-30T16:15:02.695Z,1032.55
2018-12-30T16:20:03.046Z,1032.63
2018-12-30T16:25:02.469Z,1032.6
2018-12-30T16:30:02.910Z,1032.54
2018-12-30T16:35:03.357Z,1032.57
2018-12-30T16:40:02.882Z,1032.59
2018-12-30T16:45:03.363Z,1032.59
2018-12-30T16:50:02.764Z,1032.57
2018-12-30T16:55:03.184Z,1032.57
2018-12-30T17:00:02.629Z,1032.4
2018-12-30T17:05:03.044Z,1032.17
2018-12-30T17:10:02.462Z,1032.14
2018-12-30T17:15:02.805Z,1032.25
2018-12-30T17:20:03.244Z,1032.23
2018-12-30T17:25:02.666Z,1032.29
2018-12-30T17:30:03.012Z,1032.32
2018-12-30T17:35:02.357Z,1032.33
2018-12-30T17:40:02.771Z,1032.3
2018-12-30T17:45:03.274Z,1032.17
2018-12-30T17:50:02.627Z,1032.17
2018-12-30T17:55:02.981Z,1032.26
2018-12-30T18:00:02.432Z,1032.26
2018-12-30T18:05:02.843Z,1032.42
2018-12-30T18:15:02.705Z,1032.44
2018-12-30T18:20:03.178Z,1032.4
2018-12-30T18:25:02.652Z,1032.31
2018-12-30T18:30:03.033Z,1032.23
2018-12-30T18:35:02.486Z,1032.21
2018-12-30T18:40:02.903Z,1032.17
2018-12-30T18:45:03.320Z,1032.11
2018-12-30T18:50:02.721Z,1032.18
2018-12-30T18:55:03.152Z,1032.02
2018-12-30T19:00:02.595Z,1032.01
2018-12-30T19:05:05.248Z,1032.09
2018-12-30T19:10:02.753Z,1032.08
2018-12-30T19:15:03.212Z,1032.14
2018-12-30T19:20:02.609Z,1032.09
2018-12-30T19:25:02.956Z,1032.09
2018-12-30T19:30:03.478Z,1032.18
2018-12-30T19:35:02.869Z,1032.24
2018-12-30T19:40:03.374Z,1032.17
2018-12-30T19:45:02.788Z,1032.37
2018-12-30T19:50:03.123Z,1032.33
2018-12-30T19:55:02.566Z,1032.32
2018-12-30T20:00:03.029Z,1032.31
2018-12-30T20:05:02.447Z,1032.29
2018-12-30T20:10:02.971Z,1032.3
2018-12-30T20:15:02.413Z,1032.24
2018-12-30T20:20:02.825Z,1032.21
2018-12-30T20:25:03.274Z,1032.16
2018-12-30T20:30:02.815Z,1032.18
2018-12-30T20:35:03.258Z,1032.12
2018-12-30T20:40:02.744Z,1032.02
2018-12-30T20:45:03.090Z,1032.08
2018-12-30T20:50:02.501Z,1032.02
2018-12-30T20:55:02.849Z,1032.05
2018-12-30T21:00:03.502Z,1032.0
2018-12-30T21:05:02.958Z,1032.09
2018-12-30T21:10:02.447Z,1032.05
2018-12-30T21:15:02.886Z,1032.06
2018-12-30T21:20:03.370Z,1032.05
2018-12-30T21:25:02.737Z,1032.06
2018-12-30T21:30:03.217Z,1032.02
2018-12-30T21:35:02.646Z,1031.95
2018-12-30T21:40:03.093Z,1032.04
2018-12-30T21:45:02.512Z,1031.94
2018-12-30T21:50:02.909Z,1032.0
2018-12-30T21:55:03.355Z,1032.15
2018-12-30T22:00:02.773Z,1032.23
2018-12-30T22:05:03.264Z,1032.16
2018-12-30T22:10:03.421Z,1032.15
2018-12-30T22:15:02.881Z,1032.21
2018-12-30T22:20:03.364Z,1032.23
2018-12-30T22:25:02.833Z,1032.3
2018-12-30T22:30:03.179Z,1032.33
2018-12-30T22:35:02.604Z,1032.32
2018-12-30T22:40:03.003Z,1032.35
2018-12-30T22:45:02.709Z,1032.31
2018-12-30T22:50:03.119Z,1032.25
2018-12-30T22:55:02.549Z,1032.25
2018-12-30T23:00:02.975Z,1032.31
2018-12-30T23:05:02.403Z,1032.37
2018-12-30T23:10:02.869Z,1032.36
2018-12-30T23:15:03.325Z,1032.35
2018-12-30T23:20:02.730Z,1032.32
2018-12-30T23:25:03.150Z,1032.31
2018-12-30T23:30:02.592Z,1032.35
2018-12-30T23:35:02.965Z,1032.39
2018-12-30T23:40:02.424Z,1032.38
2018-12-30T23:45:02.877Z,1032.47
2018-12-30T23:50:03.317Z,1032.45
2018-12-30T23:55:02.723Z,1032.38
